Terminal Aerodrome Forecast
Issued by NWS

Home | Current Version | Previous Version | Text Only | Print | Product List | Glossary Off
Versions: 1 2 3 4 5 6 7 8 9 10 11 12 13 14 15 16 17 18 19 20 21 22 23 24 25

000
FTUS43 KGRB 010500
TAFATW
TAF
KATW 010539Z 0106/0206 09003KT P6SM OVC010
      TEMPO 0106/0110 5SM -DZ BR BKN008
     FM011000 09003KT 5SM -DZ BR OVC007
     FM011500 13007KT P6SM BKN019
     FM012000 14008KT P6SM SCT030 BKN250
     FM020100 15006KT 5SM BR SCT007 OVC014
      TEMPO 0202/0206 2SM -RA BR BKN007=

USA.gov is the U.S. government's official web portal to all federal, state and local government web resources and services.